Main page
METAR-TAF:

METAR-TAF

Airports :

Manchester Airport

Manchester, England

latitude: 53-21N, longitude: 002-17W, elevation: 69 m

Current weather observation

The report was made 30 minutes ago, at 16:20 UTC
Wind 4 kt from the South, varying between East and Southwest
Temperature 23°C
Humidity 41%
Pressure 1031 hPa
Visibility 10 km or more

METAR: EGCC 281620Z AUTO 18004KT 100V230 9999 NCD 23/09 Q1031

Time: 17:50 (16:50 UTC)

Forecast

The report was made 5 hours and 56 minutes ago, at 10:54 UTC
Forecast valid from 28 at 12 UTC to 29 at 18 UTC
Wind 6 kt from the South/Southeast
Visibility 10 km or more
no clouds below 1500 m and no cumulonimbus

TAF: EGCC 281054Z 2812/2918 16006KT CAVOK

Weather observations and forecasts of more than 4000 airports (METAR and TAF reports).

The available stations are represented by yellow and red dots on the map.

Hover mouse over dot to see the name of the station.

Then click to see weather observations and forecasts.

To change the map : click on the green buttons with a black cross to zoom in, on the green button with a dash to zoom out, or on the green arrows for adjacent maps.


METAR-TAF: